sensor_id;sensor_type;location;lat;lon;timestamp;P1;durP1;ratioP1;P2;durP2;ratioP2
46447;SDS011;32145;50.390;30.778;2023-06-10T00:00:54;7.68;;;5.78;;
46447;SDS011;32145;50.390;30.778;2023-06-10T00:03:49;8.25;;;6.13;;
46447;SDS011;32145;50.390;30.778;2023-06-10T00:06:46;8.13;;;5.78;;
46447;SDS011;32145;50.390;30.778;2023-06-10T00:09:43;7.97;;;6.00;;
46447;SDS011;32145;50.390;30.778;2023-06-10T00:12:39;8.05;;;6.00;;
46447;SDS011;32145;50.390;30.778;2023-06-10T00:15:36;7.78;;;5.93;;
46447;SDS011;32145;50.390;30.778;2023-06-10T00:18:33;7.93;;;5.90;;
46447;SDS011;32145;50.390;30.778;2023-06-10T00:21:29;9.00;;;6.00;;
46447;SDS011;32145;50.390;30.778;2023-06-10T00:24:28;10.27;;;6.38;;
46447;SDS011;32145;50.390;30.778;2023-06-10T00:27:26;11.15;;;6.38;;
46447;SDS011;32145;50.390;30.778;2023-06-10T00:30:22;9.63;;;6.25;;
46447;SDS011;32145;50.390;30.778;2023-06-10T00:33:19;8.90;;;6.03;;
46447;SDS011;32145;50.390;30.778;2023-06-10T00:36:15;8.93;;;6.30;;
46447;SDS011;32145;50.390;30.778;2023-06-10T00:39:11;7.97;;;6.13;;
46447;SDS011;32145;50.390;30.778;2023-06-10T00:42:06;9.02;;;5.88;;
46447;SDS011;32145;50.390;30.778;2023-06-10T00:45:02;9.80;;;6.07;;
46447;SDS011;32145;50.390;30.778;2023-06-10T00:47:57;8.73;;;5.68;;
46447;SDS011;32145;50.390;30.778;2023-06-10T00:50:53;8.25;;;6.32;;
46447;SDS011;32145;50.390;30.778;2023-06-10T00:53:50;7.13;;;5.70;;
46447;SDS011;32145;50.390;30.778;2023-06-10T00:56:48;9.68;;;5.88;;
46447;SDS011;32145;50.390;30.778;2023-06-10T00:59:46;9.88;;;6.63;;
46447;SDS011;32145;50.390;30.778;2023-06-10T01:02:45;9.50;;;6.93;;
46447;SDS011;32145;50.390;30.778;2023-06-10T01:05:41;9.18;;;6.22;;
46447;SDS011;32145;50.390;30.778;2023-06-10T01:08:39;8.23;;;6.40;;
46447;SDS011;32145;50.390;30.778;2023-06-10T01:11:43;11.23;;;6.70;;
46447;SDS011;32145;50.390;30.778;2023-06-10T01:14:42;8.48;;;6.70;;
46447;SDS011;32145;50.390;30.778;2023-06-10T01:17:37;10.07;;;6.68;;
46447;SDS011;32145;50.390;30.778;2023-06-10T01:20:46;9.02;;;6.50;;
46447;SDS011;32145;50.390;30.778;2023-06-10T01:23:41;9.95;;;6.50;;
46447;SDS011;32145;50.390;30.778;2023-06-10T01:26:38;9.05;;;6.10;;
46447;SDS011;32145;50.390;30.778;2023-06-10T01:29:36;10.63;;;6.43;;
46447;SDS011;32145;50.390;30.778;2023-06-10T01:32:37;8.85;;;6.60;;
46447;SDS011;32145;50.390;30.778;2023-06-10T01:35:38;8.52;;;6.35;;
46447;SDS011;32145;50.390;30.778;2023-06-10T01:38:36;11.15;;;6.35;;
46447;SDS011;32145;50.390;30.778;2023-06-10T01:41:37;10.82;;;6.68;;
46447;SDS011;32145;50.390;30.778;2023-06-10T01:44:34;9.00;;;7.20;;
46447;SDS011;32145;50.390;30.778;2023-06-10T01:47:30;13.65;;;7.43;;
46447;SDS011;32145;50.390;30.778;2023-06-10T01:50:26;9.65;;;6.80;;
46447;SDS011;32145;50.390;30.778;2023-06-10T01:53:23;12.32;;;7.47;;
46447;SDS011;32145;50.390;30.778;2023-06-10T01:56:17;9.60;;;6.97;;
46447;SDS011;32145;50.390;30.778;2023-06-10T01:59:13;8.80;;;6.28;;
46447;SDS011;32145;50.390;30.778;2023-06-10T02:02:09;11.38;;;6.82;;
46447;SDS011;32145;50.390;30.778;2023-06-10T02:05:06;11.65;;;6.88;;
46447;SDS011;32145;50.390;30.778;2023-06-10T02:08:03;10.68;;;7.10;;
46447;SDS011;32145;50.390;30.778;2023-06-10T02:10:57;9.98;;;7.50;;
46447;SDS011;32145;50.390;30.778;2023-06-10T02:13:52;12.20;;;7.50;;
46447;SDS011;32145;50.390;30.778;2023-06-10T02:16:47;12.43;;;7.72;;
46447;SDS011;32145;50.390;30.778;2023-06-10T02:19:42;9.60;;;7.28;;
46447;SDS011;32145;50.390;30.778;2023-06-10T02:22:36;10.90;;;7.15;;
46447;SDS011;32145;50.390;30.778;2023-06-10T02:25:31;9.65;;;7.20;;
46447;SDS011;32145;50.390;30.778;2023-06-10T02:28:27;11.02;;;7.00;;
46447;SDS011;32145;50.390;30.778;2023-06-10T02:31:23;10.98;;;6.85;;
46447;SDS011;32145;50.390;30.778;2023-06-10T02:34:21;12.43;;;7.40;;
46447;SDS011;32145;50.390;30.778;2023-06-10T02:37:18;10.27;;;7.45;;
46447;SDS011;32145;50.390;30.778;2023-06-10T02:40:14;8.52;;;6.55;;
46447;SDS011;32145;50.390;30.778;2023-06-10T02:43:10;9.35;;;6.68;;
46447;SDS011;32145;50.390;30.778;2023-06-10T02:46:06;10.77;;;6.95;;
46447;SDS011;32145;50.390;30.778;2023-06-10T02:49:02;11.23;;;7.18;;
46447;SDS011;32145;50.390;30.778;2023-06-10T02:52:00;9.73;;;7.05;;
46447;SDS011;32145;50.390;30.778;2023-06-10T02:54:54;10.70;;;6.75;;
46447;SDS011;32145;50.390;30.778;2023-06-10T02:57:48;10.52;;;6.97;;
46447;SDS011;32145;50.390;30.778;2023-06-10T03:00:43;8.95;;;6.50;;
46447;SDS011;32145;50.390;30.778;2023-06-10T03:03:37;9.90;;;6.97;;
46447;SDS011;32145;50.390;30.778;2023-06-10T03:06:31;10.60;;;6.65;;
46447;SDS011;32145;50.390;30.778;2023-06-10T03:09:29;9.02;;;6.50;;
46447;SDS011;32145;50.390;30.778;2023-06-10T03:12:25;11.68;;;6.70;;
46447;SDS011;32145;50.390;30.778;2023-06-10T03:15:21;11.00;;;6.65;;
46447;SDS011;32145;50.390;30.778;2023-06-10T03:18:18;9.68;;;6.80;;
46447;SDS011;32145;50.390;30.778;2023-06-10T03:21:14;11.27;;;6.43;;
46447;SDS011;32145;50.390;30.778;2023-06-10T03:24:08;8.18;;;5.95;;
46447;SDS011;32145;50.390;30.778;2023-06-10T03:27:04;10.70;;;6.13;;
46447;SDS011;32145;50.390;30.778;2023-06-10T03:29:59;9.95;;;5.55;;
46447;SDS011;32145;50.390;30.778;2023-06-10T03:32:53;8.00;;;5.60;;
46447;SDS011;32145;50.390;30.778;2023-06-10T03:35:47;7.88;;;6.03;;
46447;SDS011;32145;50.390;30.778;2023-06-10T03:38:41;8.70;;;5.65;;
46447;SDS011;32145;50.390;30.778;2023-06-10T03:41:38;9.88;;;5.60;;
46447;SDS011;32145;50.390;30.778;2023-06-10T03:44:35;7.85;;;5.05;;
46447;SDS011;32145;50.390;30.778;2023-06-10T03:47:33;9.18;;;5.50;;
46447;SDS011;32145;50.390;30.778;2023-06-10T03:50:29;9.75;;;5.47;;
46447;SDS011;32145;50.390;30.778;2023-06-10T03:53:26;7.55;;;5.20;;
46447;SDS011;32145;50.390;30.778;2023-06-10T03:56:22;7.88;;;5.18;;
46447;SDS011;32145;50.390;30.778;2023-06-10T03:59:19;7.90;;;5.45;;
46447;SDS011;32145;50.390;30.778;2023-06-10T04:02:16;8.10;;;4.97;;
46447;SDS011;32145;50.390;30.778;2023-06-10T04:05:13;8.55;;;5.45;;
46447;SDS011;32145;50.390;30.778;2023-06-10T04:08:09;7.03;;;5.20;;
46447;SDS011;32145;50.390;30.778;2023-06-10T04:11:06;6.57;;;4.90;;
46447;SDS011;32145;50.390;30.778;2023-06-10T04:14:02;8.00;;;5.10;;
46447;SDS011;32145;50.390;30.778;2023-06-10T04:16:58;7.95;;;5.25;;
46447;SDS011;32145;50.390;30.778;2023-06-10T04:19:56;10.35;;;5.28;;
46447;SDS011;32145;50.390;30.778;2023-06-10T04:22:53;9.68;;;5.18;;
46447;SDS011;32145;50.390;30.778;2023-06-10T04:25:49;6.60;;;5.20;;
46447;SDS011;32145;50.390;30.778;2023-06-10T04:28:45;9.55;;;5.18;;
46447;SDS011;32145;50.390;30.778;2023-06-10T04:31:40;8.07;;;5.10;;
46447;SDS011;32145;50.390;30.778;2023-06-10T04:34:34;12.00;;;5.40;;
46447;SDS011;32145;50.390;30.778;2023-06-10T04:37:29;8.38;;;5.10;;
46447;SDS011;32145;50.390;30.778;2023-06-10T04:40:24;6.95;;;5.05;;
46447;SDS011;32145;50.390;30.778;2023-06-10T04:43:18;5.93;;;4.90;;
46447;SDS011;32145;50.390;30.778;2023-06-10T04:46:12;7.50;;;4.90;;
46447;SDS011;32145;50.390;30.778;2023-06-10T04:49:10;7.63;;;4.93;;
46447;SDS011;32145;50.390;30.778;2023-06-10T04:52:06;8.00;;;5.30;;
46447;SDS011;32145;50.390;30.778;2023-06-10T04:55:04;7.50;;;5.32;;
46447;SDS011;32145;50.390;30.778;2023-06-10T04:58:01;8.93;;;5.30;;
46447;SDS011;32145;50.390;30.778;2023-06-10T05:00:58;8.55;;;5.07;;
46447;SDS011;32145;50.390;30.778;2023-06-10T05:03:54;6.32;;;4.75;;
46447;SDS011;32145;50.390;30.778;2023-06-10T05:06:50;8.88;;;4.93;;
46447;SDS011;32145;50.390;30.778;2023-06-10T05:09:47;6.82;;;5.00;;
46447;SDS011;32145;50.390;30.778;2023-06-10T05:12:45;6.72;;;4.70;;
46447;SDS011;32145;50.390;30.778;2023-06-10T05:15:41;10.20;;;4.68;;
46447;SDS011;32145;50.390;30.778;2023-06-10T05:18:37;8.57;;;4.78;;
46447;SDS011;32145;50.390;30.778;2023-06-10T05:21:34;7.25;;;4.70;;
46447;SDS011;32145;50.390;30.778;2023-06-10T05:24:30;8.98;;;4.45;;
46447;SDS011;32145;50.390;30.778;2023-06-10T05:27:26;9.02;;;4.50;;
46447;SDS011;32145;50.390;30.778;2023-06-10T05:30:24;9.40;;;4.72;;
46447;SDS011;32145;50.390;30.778;2023-06-10T05:33:20;8.93;;;5.00;;
46447;SDS011;32145;50.390;30.778;2023-06-10T05:36:17;6.43;;;4.60;;
46447;SDS011;32145;50.390;30.778;2023-06-10T05:39:13;5.63;;;4.47;;
46447;SDS011;32145;50.390;30.778;2023-06-10T05:42:09;8.57;;;4.80;;
46447;SDS011;32145;50.390;30.778;2023-06-10T05:45:06;7.97;;;4.30;;
46447;SDS011;32145;50.390;30.778;2023-06-10T05:48:02;8.32;;;4.53;;
46447;SDS011;32145;50.390;30.778;2023-06-10T05:50:57;10.25;;;4.72;;
46447;SDS011;32145;50.390;30.778;2023-06-10T05:53:51;7.78;;;4.63;;
46447;SDS011;32145;50.390;30.778;2023-06-10T05:56:46;5.82;;;4.25;;
46447;SDS011;32145;50.390;30.778;2023-06-10T05:59:40;6.35;;;4.78;;
46447;SDS011;32145;50.390;30.778;2023-06-10T06:02:35;8.73;;;4.32;;
46447;SDS011;32145;50.390;30.778;2023-06-10T06:05:30;8.88;;;4.32;;
46447;SDS011;32145;50.390;30.778;2023-06-10T06:08:25;9.95;;;4.38;;
46447;SDS011;32145;50.390;30.778;2023-06-10T06:11:19;6.10;;;4.35;;
46447;SDS011;32145;50.390;30.778;2023-06-10T06:14:13;8.43;;;4.45;;
46447;SDS011;32145;50.390;30.778;2023-06-10T06:17:07;11.75;;;5.13;;
46447;SDS011;32145;50.390;30.778;2023-06-10T06:20:02;7.68;;;4.88;;
46447;SDS011;32145;50.390;30.778;2023-06-10T06:22:58;6.28;;;4.57;;
46447;SDS011;32145;50.390;30.778;2023-06-10T06:25:52;7.07;;;4.32;;
46447;SDS011;32145;50.390;30.778;2023-06-10T06:28:46;7.78;;;4.53;;
46447;SDS011;32145;50.390;30.778;2023-06-10T06:31:40;8.00;;;4.38;;
46447;SDS011;32145;50.390;30.778;2023-06-10T06:34:35;10.93;;;4.57;;
46447;SDS011;32145;50.390;30.778;2023-06-10T06:37:31;8.18;;;4.53;;
46447;SDS011;32145;50.390;30.778;2023-06-10T06:40:29;5.80;;;4.15;;
46447;SDS011;32145;50.390;30.778;2023-06-10T06:43:23;9.00;;;4.50;;
46447;SDS011;32145;50.390;30.778;2023-06-10T06:46:17;7.30;;;4.43;;
46447;SDS011;32145;50.390;30.778;2023-06-10T06:49:12;8.50;;;4.53;;
46447;SDS011;32145;50.390;30.778;2023-06-10T06:52:06;6.80;;;4.63;;
46447;SDS011;32145;50.390;30.778;2023-06-10T06:55:01;8.57;;;5.90;;
46447;SDS011;32145;50.390;30.778;2023-06-10T06:57:57;8.27;;;4.80;;
46447;SDS011;32145;50.390;30.778;2023-06-10T07:00:53;7.38;;;4.35;;
46447;SDS011;32145;50.390;30.778;2023-06-10T07:03:49;10.38;;;4.70;;
46447;SDS011;32145;50.390;30.778;2023-06-10T07:06:45;9.80;;;4.72;;
46447;SDS011;32145;50.390;30.778;2023-06-10T07:09:42;6.45;;;4.22;;
46447;SDS011;32145;50.390;30.778;2023-06-10T07:12:38;7.63;;;4.32;;
46447;SDS011;32145;50.390;30.778;2023-06-10T07:15:36;7.80;;;4.35;;
46447;SDS011;32145;50.390;30.778;2023-06-10T07:18:32;9.98;;;4.53;;
46447;SDS011;32145;50.390;30.778;2023-06-10T07:21:29;7.47;;;4.50;;
46447;SDS011;32145;50.390;30.778;2023-06-10T07:24:25;5.78;;;4.18;;
46447;SDS011;32145;50.390;30.778;2023-06-10T07:27:21;6.47;;;4.30;;
46447;SDS011;32145;50.390;30.778;2023-06-10T07:30:18;7.38;;;4.57;;
46447;SDS011;32145;50.390;30.778;2023-06-10T07:33:16;6.60;;;4.53;;
46447;SDS011;32145;50.390;30.778;2023-06-10T07:36:12;6.30;;;4.28;;
46447;SDS011;32145;50.390;30.778;2023-06-10T07:39:08;6.07;;;4.13;;
46447;SDS011;32145;50.390;30.778;2023-06-10T07:42:05;12.18;;;4.75;;
46447;SDS011;32145;50.390;30.778;2023-06-10T07:45:02;8.57;;;4.20;;
46447;SDS011;32145;50.390;30.778;2023-06-10T07:47:58;6.20;;;4.30;;
46447;SDS011;32145;50.390;30.778;2023-06-10T07:50:56;7.93;;;4.20;;
46447;SDS011;32145;50.390;30.778;2023-06-10T07:53:52;8.90;;;4.97;;
46447;SDS011;32145;50.390;30.778;2023-06-10T07:56:49;7.43;;;4.50;;
46447;SDS011;32145;50.390;30.778;2023-06-10T07:59:45;7.90;;;4.57;;
46447;SDS011;32145;50.390;30.778;2023-06-10T08:02:42;7.97;;;4.30;;
46447;SDS011;32145;50.390;30.778;2023-06-10T08:05:39;6.68;;;4.22;;
46447;SDS011;32145;50.390;30.778;2023-06-10T08:08:36;8.30;;;4.32;;
46447;SDS011;32145;50.390;30.778;2023-06-10T08:11:33;10.52;;;4.50;;
46447;SDS011;32145;50.390;30.778;2023-06-10T08:14:29;6.65;;;3.95;;
46447;SDS011;32145;50.390;30.778;2023-06-10T08:17:25;7.82;;;4.13;;
46447;SDS011;32145;50.390;30.778;2023-06-10T08:20:22;6.18;;;4.20;;
46447;SDS011;32145;50.390;30.778;2023-06-10T08:23:18;8.55;;;4.30;;
46447;SDS011;32145;50.390;30.778;2023-06-10T08:26:16;6.25;;;4.05;;
46447;SDS011;32145;50.390;30.778;2023-06-10T08:29:12;8.57;;;4.30;;
46447;SDS011;32145;50.390;30.778;2023-06-10T08:32:09;6.18;;;4.15;;
46447;SDS011;32145;50.390;30.778;2023-06-10T08:35:06;7.90;;;4.47;;
46447;SDS011;32145;50.390;30.778;2023-06-10T08:38:03;8.38;;;4.78;;
46447;SDS011;32145;50.390;30.778;2023-06-10T08:40:59;6.80;;;4.35;;
46447;SDS011;32145;50.390;30.778;2023-06-10T08:44:01;8.00;;;4.43;;
46447;SDS011;32145;50.390;30.778;2023-06-10T08:47:05;6.30;;;4.10;;
46447;SDS011;32145;50.390;30.778;2023-06-10T08:50:07;6.05;;;4.07;;
46447;SDS011;32145;50.390;30.778;2023-06-10T08:53:04;8.10;;;4.25;;
46447;SDS011;32145;50.390;30.778;2023-06-10T08:56:01;6.53;;;3.92;;
46447;SDS011;32145;50.390;30.778;2023-06-10T08:59:02;7.45;;;3.80;;
46447;SDS011;32145;50.390;30.778;2023-06-10T09:01:57;7.68;;;4.43;;
46447;SDS011;32145;50.390;30.778;2023-06-10T09:04:51;9.43;;;4.72;;
46447;SDS011;32145;50.390;30.778;2023-06-10T09:07:47;6.03;;;4.50;;
46447;SDS011;32145;50.390;30.778;2023-06-10T09:10:43;8.10;;;4.32;;
46447;SDS011;32145;50.390;30.778;2023-06-10T09:13:40;7.55;;;4.47;;
46447;SDS011;32145;50.390;30.778;2023-06-10T09:16:37;6.63;;;4.50;;
46447;SDS011;32145;50.390;30.778;2023-06-10T09:19:34;7.85;;;4.05;;
46447;SDS011;32145;50.390;30.778;2023-06-10T09:22:31;13.50;;;4.78;;
46447;SDS011;32145;50.390;30.778;2023-06-10T09:25:34;7.35;;;4.57;;
46447;SDS011;32145;50.390;30.778;2023-06-10T09:28:29;6.78;;;4.47;;
46447;SDS011;32145;50.390;30.778;2023-06-10T09:31:24;12.63;;;5.75;;
46447;SDS011;32145;50.390;30.778;2023-06-10T09:34:20;8.30;;;4.50;;
46447;SDS011;32145;50.390;30.778;2023-06-10T09:37:21;9.13;;;4.35;;
46447;SDS011;32145;50.390;30.778;2023-06-10T09:40:16;10.73;;;4.78;;
46447;SDS011;32145;50.390;30.778;2023-06-10T09:43:12;8.38;;;4.70;;
46447;SDS011;32145;50.390;30.778;2023-06-10T09:46:14;6.30;;;4.40;;
46447;SDS011;32145;50.390;30.778;2023-06-10T09:49:10;9.75;;;4.88;;
46447;SDS011;32145;50.390;30.778;2023-06-10T09:52:08;11.48;;;4.57;;
46447;SDS011;32145;50.390;30.778;2023-06-10T09:55:07;10.30;;;4.70;;
46447;SDS011;32145;50.390;30.778;2023-06-10T09:58:04;10.52;;;4.75;;
46447;SDS011;32145;50.390;30.778;2023-06-10T10:01:03;8.23;;;4.60;;
46447;SDS011;32145;50.390;30.778;2023-06-10T10:04:00;7.32;;;3.97;;
46447;SDS011;32145;50.390;30.778;2023-06-10T10:06:57;6.35;;;3.92;;
46447;SDS011;32145;50.390;30.778;2023-06-10T10:09:54;6.85;;;4.20;;
46447;SDS011;32145;50.390;30.778;2023-06-10T10:12:52;20.20;;;5.38;;
46447;SDS011;32145;50.390;30.778;2023-06-10T10:15:50;10.27;;;4.43;;
46447;SDS011;32145;50.390;30.778;2023-06-10T10:18:47;6.22;;;3.72;;
46447;SDS011;32145;50.390;30.778;2023-06-10T10:21:50;7.72;;;4.43;;
46447;SDS011;32145;50.390;30.778;2023-06-10T10:24:50;7.70;;;3.85;;
46447;SDS011;32145;50.390;30.778;2023-06-10T10:27:50;9.15;;;3.75;;
46447;SDS011;32145;50.390;30.778;2023-06-10T10:30:49;6.18;;;3.63;;
46447;SDS011;32145;50.390;30.778;2023-06-10T10:33:49;5.95;;;3.75;;
46447;SDS011;32145;50.390;30.778;2023-06-10T10:36:50;10.93;;;3.80;;
46447;SDS011;32145;50.390;30.778;2023-06-10T10:39:47;7.93;;;4.57;;
46447;SDS011;32145;50.390;30.778;2023-06-10T10:42:44;7.78;;;3.90;;
46447;SDS011;32145;50.390;30.778;2023-06-10T10:45:42;5.82;;;3.45;;
46447;SDS011;32145;50.390;30.778;2023-06-10T10:48:41;5.53;;;3.35;;
46447;SDS011;32145;50.390;30.778;2023-06-10T10:51:38;10.75;;;3.60;;
46447;SDS011;32145;50.390;30.778;2023-06-10T10:54:52;6.78;;;3.75;;
46447;SDS011;32145;50.390;30.778;2023-06-10T10:57:53;5.63;;;3.70;;
46447;SDS011;32145;50.390;30.778;2023-06-10T11:00:51;7.50;;;3.78;;
46447;SDS011;32145;50.390;30.778;2023-06-10T11:03:35;5.38;;;3.30;;
46447;SDS011;32145;50.390;30.778;2023-06-10T11:06:38;8.98;;;3.60;;
46447;SDS011;32145;50.390;30.778;2023-06-10T11:09:34;6.53;;;3.97;;
46447;SDS011;32145;50.390;30.778;2023-06-10T11:12:22;9.48;;;3.78;;
46447;SDS011;32145;50.390;30.778;2023-06-10T11:15:18;4.85;;;3.42;;
46447;SDS011;32145;50.390;30.778;2023-06-10T11:18:08;6.78;;;3.45;;
46447;SDS011;32145;50.390;30.778;2023-06-10T11:20:54;5.30;;;3.40;;
46447;SDS011;32145;50.390;30.778;2023-06-10T11:23:52;7.63;;;3.70;;
46447;SDS011;32145;50.390;30.778;2023-06-10T11:26:46;7.68;;;3.53;;
46447;SDS011;32145;50.390;30.778;2023-06-10T11:29:30;6.18;;;3.72;;
46447;SDS011;32145;50.390;30.778;2023-06-10T11:32:29;7.80;;;4.50;;
46447;SDS011;32145;50.390;30.778;2023-06-10T11:35:15;5.63;;;3.75;;
46447;SDS011;32145;50.390;30.778;2023-06-10T11:38:10;6.13;;;3.58;;
46447;SDS011;32145;50.390;30.778;2023-06-10T11:41:04;6.40;;;4.00;;
46447;SDS011;32145;50.390;30.778;2023-06-10T11:43:48;5.80;;;3.72;;
46447;SDS011;32145;50.390;30.778;2023-06-10T11:46:44;4.55;;;3.58;;
46447;SDS011;32145;50.390;30.778;2023-06-10T11:49:30;5.05;;;3.45;;
46447;SDS011;32145;50.390;30.778;2023-06-10T11:52:27;5.65;;;3.90;;
46447;SDS011;32145;50.390;30.778;2023-06-10T11:55:12;5.57;;;3.85;;
46447;SDS011;32145;50.390;30.778;2023-06-10T11:57:56;12.85;;;4.00;;
46447;SDS011;32145;50.390;30.778;2023-06-10T12:00:43;7.72;;;3.97;;
46447;SDS011;32145;50.390;30.778;2023-06-10T12:03:35;6.20;;;3.75;;
46447;SDS011;32145;50.390;30.778;2023-06-10T12:06:19;7.88;;;3.75;;
46447;SDS011;32145;50.390;30.778;2023-06-10T12:09:20;5.70;;;3.33;;
46447;SDS011;32145;50.390;30.778;2023-06-10T12:12:06;6.72;;;3.90;;
46447;SDS011;32145;50.390;30.778;2023-06-10T12:15:01;4.63;;;3.70;;
46447;SDS011;32145;50.390;30.778;2023-06-10T12:17:55;8.73;;;3.10;;
46447;SDS011;32145;50.390;30.778;2023-06-10T12:20:39;4.97;;;2.40;;
46447;SDS011;32145;50.390;30.778;2023-06-10T12:23:35;11.73;;;2.90;;
46447;SDS011;32145;50.390;30.778;2023-06-10T12:26:21;12.48;;;2.90;;
46447;SDS011;32145;50.390;30.778;2023-06-10T12:29:31;21.27;;;3.55;;
46447;SDS011;32145;50.390;30.778;2023-06-10T12:32:34;9.88;;;2.92;;
46447;SDS011;32145;50.390;30.778;2023-06-10T12:35:31;11.88;;;3.38;;
46447;SDS011;32145;50.390;30.778;2023-06-10T12:38:26;7.32;;;2.88;;
46447;SDS011;32145;50.390;30.778;2023-06-10T12:41:22;7.43;;;2.70;;
46447;SDS011;32145;50.390;30.778;2023-06-10T12:44:16;5.45;;;2.70;;
46447;SDS011;32145;50.390;30.778;2023-06-10T12:47:01;7.65;;;2.90;;
46447;SDS011;32145;50.390;30.778;2023-06-10T12:49:50;8.80;;;2.83;;
46447;SDS011;32145;50.390;30.778;2023-06-10T12:52:34;9.80;;;3.63;;
46447;SDS011;32145;50.390;30.778;2023-06-10T12:55:24;13.02;;;5.97;;
46447;SDS011;32145;50.390;30.778;2023-06-10T12:58:20;9.07;;;4.07;;
46447;SDS011;32145;50.390;30.778;2023-06-10T13:01:04;12.98;;;3.85;;
46447;SDS011;32145;50.390;30.778;2023-06-10T13:03:59;11.95;;;4.20;;
46447;SDS011;32145;50.390;30.778;2023-06-10T13:06:53;12.85;;;4.85;;
46447;SDS011;32145;50.390;30.778;2023-06-10T13:09:47;11.10;;;4.40;;
46447;SDS011;32145;50.390;30.778;2023-06-10T13:12:32;8.88;;;3.40;;
46447;SDS011;32145;50.390;30.778;2023-06-10T13:15:27;7.28;;;3.55;;
46447;SDS011;32145;50.390;30.778;2023-06-10T13:18:22;8.30;;;3.70;;
46447;SDS011;32145;50.390;30.778;2023-06-10T13:21:16;8.43;;;4.03;;
46447;SDS011;32145;50.390;30.778;2023-06-10T13:24:10;8.55;;;3.15;;
46447;SDS011;32145;50.390;30.778;2023-06-10T13:27:07;9.13;;;3.65;;
46447;SDS011;32145;50.390;30.778;2023-06-10T13:30:03;7.88;;;3.50;;
46447;SDS011;32145;50.390;30.778;2023-06-10T13:33:01;10.07;;;4.00;;
46447;SDS011;32145;50.390;30.778;2023-06-10T13:35:45;7.22;;;3.75;;
46447;SDS011;32145;50.390;30.778;2023-06-10T13:38:40;9.75;;;4.47;;
46447;SDS011;32145;50.390;30.778;2023-06-10T13:41:24;6.97;;;4.20;;
46447;SDS011;32145;50.390;30.778;2023-06-10T13:44:18;10.10;;;4.13;;
46447;SDS011;32145;50.390;30.778;2023-06-10T13:47:02;7.85;;;4.35;;
46447;SDS011;32145;50.390;30.778;2023-06-10T13:49:48;8.15;;;4.30;;
46447;SDS011;32145;50.390;30.778;2023-06-10T13:52:42;11.15;;;4.22;;
46447;SDS011;32145;50.390;30.778;2023-06-10T13:55:36;7.93;;;4.28;;
46447;SDS011;32145;50.390;30.778;2023-06-10T13:58:31;6.90;;;4.00;;
46447;SDS011;32145;50.390;30.778;2023-06-10T14:01:25;9.55;;;4.63;;
46447;SDS011;32145;50.390;30.778;2023-06-10T14:04:09;9.88;;;4.35;;
46447;SDS011;32145;50.390;30.778;2023-06-10T14:06:54;10.95;;;4.00;;
46447;SDS011;32145;50.390;30.778;2023-06-10T14:09:38;9.65;;;3.90;;
46447;SDS011;32145;50.390;30.778;2023-06-10T14:12:34;5.85;;;3.65;;
46447;SDS011;32145;50.390;30.778;2023-06-10T14:15:31;10.38;;;4.18;;
46447;SDS011;32145;50.390;30.778;2023-06-10T14:18:15;5.50;;;3.88;;
46447;SDS011;32145;50.390;30.778;2023-06-10T14:21:09;6.65;;;3.97;;
46447;SDS011;32145;50.390;30.778;2023-06-10T14:23:55;7.35;;;4.10;;
46447;SDS011;32145;50.390;30.778;2023-06-10T14:26:45;6.38;;;3.78;;
46447;SDS011;32145;50.390;30.778;2023-06-10T14:29:29;7.47;;;3.65;;
46447;SDS011;32145;50.390;30.778;2023-06-10T14:32:25;7.63;;;4.10;;
46447;SDS011;32145;50.390;30.778;2023-06-10T14:35:10;7.05;;;4.03;;
46447;SDS011;32145;50.390;30.778;2023-06-10T14:37:54;9.18;;;5.35;;
46447;SDS011;32145;50.390;30.778;2023-06-10T14:40:52;9.40;;;4.63;;
46447;SDS011;32145;50.390;30.778;2023-06-10T14:43:36;7.93;;;4.28;;
46447;SDS011;32145;50.390;30.778;2023-06-10T14:46:20;8.10;;;3.88;;
46447;SDS011;32145;50.390;30.778;2023-06-10T14:49:16;7.30;;;3.80;;
46447;SDS011;32145;50.390;30.778;2023-06-10T14:52:12;5.97;;;3.20;;
46447;SDS011;32145;50.390;30.778;2023-06-10T14:55:08;7.20;;;3.67;;
46447;SDS011;32145;50.390;30.778;2023-06-10T14:58:00;7.25;;;3.63;;
46447;SDS011;32145;50.390;30.778;2023-06-10T15:00:44;6.60;;;4.00;;
46447;SDS011;32145;50.390;30.778;2023-06-10T15:03:28;9.77;;;4.15;;
46447;SDS011;32145;50.390;30.778;2023-06-10T15:06:23;6.97;;;4.43;;
46447;SDS011;32145;50.390;30.778;2023-06-10T15:09:07;6.60;;;4.22;;
46447;SDS011;32145;50.390;30.778;2023-06-10T15:12:03;6.35;;;3.95;;
46447;SDS011;32145;50.390;30.778;2023-06-10T15:14:49;6.60;;;3.80;;
46447;SDS011;32145;50.390;30.778;2023-06-10T15:17:33;8.75;;;3.80;;
46447;SDS011;32145;50.390;30.778;2023-06-10T15:20:17;6.35;;;4.10;;
46447;SDS011;32145;50.390;30.778;2023-06-10T15:23:11;6.95;;;4.40;;
46447;SDS011;32145;50.390;30.778;2023-06-10T15:26:05;7.35;;;4.25;;
46447;SDS011;32145;50.390;30.778;2023-06-10T15:29:00;8.48;;;4.57;;
46447;SDS011;32145;50.390;30.778;2023-06-10T15:31:45;7.80;;;5.07;;
46447;SDS011;32145;50.390;30.778;2023-06-10T15:34:29;8.80;;;4.70;;
46447;SDS011;32145;50.390;30.778;2023-06-10T15:37:13;5.93;;;4.45;;
46447;SDS011;32145;50.390;30.778;2023-06-10T15:40:07;6.80;;;5.10;;
46447;SDS011;32145;50.390;30.778;2023-06-10T15:42:52;8.10;;;5.00;;
46447;SDS011;32145;50.390;30.778;2023-06-10T15:45:36;8.88;;;4.78;;
46447;SDS011;32145;50.390;30.778;2023-06-10T15:48:32;10.15;;;4.80;;
46447;SDS011;32145;50.390;30.778;2023-06-10T15:51:29;6.68;;;5.25;;
46447;SDS011;32145;50.390;30.778;2023-06-10T15:54:13;9.07;;;5.35;;
46447;SDS011;32145;50.390;30.778;2023-06-10T15:56:57;8.52;;;5.32;;
46447;SDS011;32145;50.390;30.778;2023-06-10T15:59:54;9.95;;;6.40;;
46447;SDS011;32145;50.390;30.778;2023-06-10T16:02:37;10.02;;;6.03;;
46447;SDS011;32145;50.390;30.778;2023-06-10T16:05:33;11.23;;;7.38;;
46447;SDS011;32145;50.390;30.778;2023-06-10T16:08:17;14.75;;;8.70;;
46447;SDS011;32145;50.390;30.778;2023-06-10T16:11:01;7.45;;;5.55;;
46447;SDS011;32145;50.390;30.778;2023-06-10T16:13:46;11.70;;;6.60;;
46447;SDS011;32145;50.390;30.778;2023-06-10T16:16:40;7.40;;;5.50;;
46447;SDS011;32145;50.390;30.778;2023-06-10T16:19:34;7.60;;;5.50;;
46447;SDS011;32145;50.390;30.778;2023-06-10T16:22:32;12.18;;;5.82;;
46447;SDS011;32145;50.390;30.778;2023-06-10T16:25:28;10.13;;;6.05;;
46447;SDS011;32145;50.390;30.778;2023-06-10T16:28:12;10.93;;;6.32;;
46447;SDS011;32145;50.390;30.778;2023-06-10T16:31:06;7.88;;;6.00;;
46447;SDS011;32145;50.390;30.778;2023-06-10T16:33:50;8.63;;;6.68;;
46447;SDS011;32145;50.390;30.778;2023-06-10T16:36:47;9.07;;;6.13;;
46447;SDS011;32145;50.390;30.778;2023-06-10T16:39:33;8.70;;;6.20;;
46447;SDS011;32145;50.390;30.778;2023-06-10T16:42:17;8.70;;;6.38;;
46447;SDS011;32145;50.390;30.778;2023-06-10T16:45:01;9.88;;;7.32;;
46447;SDS011;32145;50.390;30.778;2023-06-10T16:47:55;10.32;;;8.73;;
46447;SDS011;32145;50.390;30.778;2023-06-10T16:50:50;9.57;;;7.38;;
46447;SDS011;32145;50.390;30.778;2023-06-10T16:53:46;9.95;;;7.55;;
46447;SDS011;32145;50.390;30.778;2023-06-10T16:56:44;9.05;;;7.70;;
46447;SDS011;32145;50.390;30.778;2023-06-10T16:59:41;8.15;;;7.20;;
46447;SDS011;32145;50.390;30.778;2023-06-10T17:02:37;9.82;;;7.93;;
46447;SDS011;32145;50.390;30.778;2023-06-10T17:05:27;9.38;;;7.13;;
46447;SDS011;32145;50.390;30.778;2023-06-10T17:08:22;10.02;;;7.85;;
46447;SDS011;32145;50.390;30.778;2023-06-10T17:11:12;9.65;;;8.32;;